Flight Briefing for CPX322

Departure Arrival
Lehigh Valley International Airport (KABE)
Click to view FAA NOTAMS
Chicago/Rockford International Airport (KRFD)
Click to view FAA NOTAMS
Departure Time Arrival Time
N/A N/A
Aircraft Distance
B767-300BDSF 623nm
Departure METAR Arrival METAR
KABE 271151Z 29006KT 10SM CLR 19/11 A2999 RMK AO2 SLP152 70003 T01940111 10206 20161 53019 KRFD 271154Z 11006KT 10SM SCT250 14/09 A3001 RMK AO2 SLP159 70004 T01440094 10144 20128 56013 $
Suggested Route
PSB J60 JOT V171 RFD


View recent IFR Routes data
Notes



Charts and Procedures

Charts for KABE
No chart available
Charts for KRFD
No chart available

Windy.com Weather Map